Time;durP1;ratioP1;P1;durP2;ratioP2;P2;SDS_P1;SDS_P2;PMS_P1;PMS_P2;Temp;Humidity;BMP_temperature;BMP_pressure;BME280_temperature;BME280_humidity;BME280_pressure;Samples;Min_cycle;Max_cycle;Signal;HPM_P1;HPM_P2
2021/06/23 00:00:52;;;;;;;22.27;20.08;;;;;;;21.13;78.89;100424.56;1679465;83;26703;-78
2021/06/23 00:03:19;;;;;;;25.35;21.57;;;;;;;21.11;78.92;100430.80;1733151;81;25778;-77
2021/06/23 00:05:47;;;;;;;21.85;19.55;;;;;;;21.07;78.99;100427.79;1730659;82;25925;-77
2021/06/23 00:08:14;;;;;;;25.10;22.52;;;;;;;21.08;79.14;100421.81;1728092;82;25909;-78
2021/06/23 00:10:41;;;;;;;27.85;24.90;;;;;;;21.05;79.21;100420.42;1736791;81;27599;-77
2021/06/23 00:13:09;;;;;;;28.32;25.32;;;;;;;21.02;79.44;100429.63;1711721;82;25840;-77
2021/06/23 00:15:38;;;;;;;26.07;23.47;;;;;;;21.00;79.62;100429.07;1738973;81;25762;-78
2021/06/23 00:18:05;;;;;;;26.40;23.75;;;;;;;21.02;79.62;100429.63;1736624;82;25939;-77
2021/06/23 00:20:33;;;;;;;26.50;23.77;;;;;;;21.05;79.79;100429.12;1700250;82;26589;-77
2021/06/23 00:23:01;;;;;;;27.07;24.18;;;;;;;21.02;79.71;100435.08;1736521;82;27578;-76
2021/06/23 00:25:29;;;;;;;26.15;23.32;;;;;;;20.98;80.00;100436.12;1752705;81;25894;-77
2021/06/23 00:27:56;;;;;;;24.65;21.82;;;;;;;20.99;80.11;100423.33;1780629;79;25799;-76
2021/06/23 00:30:24;;;;;;;24.72;22.20;;;;;;;20.94;80.19;100420.55;1725087;81;26532;-76
2021/06/23 00:32:53;;;;;;;24.57;22.07;;;;;;;20.90;80.29;100422.15;1722653;82;25727;-77
2021/06/23 00:35:21;;;;;;;25.27;22.58;;;;;;;20.88;80.55;100432.48;1740443;82;28274;-78
2021/06/23 00:37:48;;;;;;;26.93;22.55;;;;;;;20.85;80.60;100435.17;1714931;82;26499;-77
2021/06/23 00:40:16;;;;;;;25.32;22.60;;;;;;;20.83;80.69;100418.27;1706017;81;25873;-77
2021/06/23 00:42:44;;;;;;;25.40;22.80;;;;;;;20.82;80.69;100420.73;1729689;81;25891;-78
2021/06/23 00:45:14;;;;;;;26.40;23.47;;;;;;;20.86;80.72;100423.22;1753425;81;25803;-78
2021/06/23 00:47:44;;;;;;;26.95;24.25;;;;;;;20.88;80.79;100416.14;1729727;81;27387;-77
2021/06/23 00:50:16;;;;;;;25.97;23.38;;;;;;;20.86;80.93;100421.03;1672450;81;25973;-77
2021/06/23 00:52:51;;;;;;;27.70;24.77;;;;;;;20.84;80.87;100420.47;1730679;81;26480;-79
2021/06/23 00:55:26;;;;;;;29.32;24.92;;;;;;;20.80;81.04;100414.72;1753104;80;26342;-77
2021/06/23 00:57:55;;;;;;;30.35;24.57;;;;;;;20.80;81.26;100415.26;1729587;81;25829;-77
2021/06/23 01:00:30;;;;;;;32.45;24.57;;;;;;;20.82;81.45;100425.34;1671139;81;27446;-77
2021/06/23 01:03:01;;;;;;;31.07;25.37;;;;;;;20.74;81.62;100424.72;1729751;81;25765;-77
2021/06/23 01:05:31;;;;;;;33.35;25.05;;;;;;;20.70;81.96;100426.32;1753219;80;25812;-77
2021/06/23 01:08:00;;;;;;;41.30;25.82;;;;;;;20.67;81.90;100430.94;1729582;81;25844;-77
2021/06/23 01:10:34;;;;;;;32.57;25.50;;;;;;;20.66;82.02;100435.25;1707198;81;26004;-77
2021/06/23 01:13:38;;;;;;;27.25;24.37;;;;;;;20.64;82.18;100433.33;1750231;80;28428;-77
2021/06/23 01:16:11;;;;;;;33.10;25.20;;;;;;;20.64;82.17;100434.69;1733717;82;25779;-77
2021/06/23 01:18:38;;;;;;;;;;;;;;;20.63;82.45;100431.70;1701466;83;25864;-77
2021/06/23 01:21:08;;;;;;;28.05;25.10;;;;;;;20.61;82.63;100436.05;1734202;81;26679;-77
2021/06/23 01:23:36;;;;;;;33.67;26.05;;;;;;;20.58;82.42;100437.91;1709484;83;25830;-77
2021/06/23 01:26:04;;;;;;;32.00;23.75;;;;;;;20.62;82.48;100436.31;1753428;81;28059;-77
2021/06/23 01:28:33;;;;;;;29.63;22.50;;;;;;;20.64;82.19;100447.77;1717361;81;26124;-78
2021/06/23 01:31:04;;;;;;;37.45;23.62;;;;;;;20.67;82.11;100450.52;1752433;81;25889;-77
2021/06/23 01:33:34;;;;;;;25.10;22.50;;;;;;;20.67;81.86;100457.33;1753430;79;26572;-78
2021/06/23 01:36:01;;;;;;;28.95;23.50;;;;;;;20.67;81.72;100458.16;1730058;81;25897;-77
2021/06/23 01:38:28;;;;;;;46.53;26.57;;;;;;;20.69;81.87;100456.53;1754950;80;27616;-76
2021/06/23 01:40:57;;;;;;;43.52;23.55;;;;;;;20.71;81.69;100464.73;1740860;81;25804;-77
2021/06/23 01:43:24;;;;;;;30.57;24.45;;;;;;;20.67;81.38;100466.85;1729622;81;25858;-77
2021/06/23 01:45:52;;;;;;;25.00;22.40;;;;;;;20.64;81.33;100468.71;1729902;81;26036;-77
2021/06/23 01:48:22;;;;;;;25.95;23.10;;;;;;;20.63;81.26;100469.27;1754770;81;25846;-77
2021/06/23 01:51:02;;;;;;;26.42;23.60;;;;;;;20.64;81.23;100468.18;1741840;81;27495;-77
2021/06/23 01:53:35;;;;;;;30.43;24.52;;;;;;;20.65;81.28;100471.20;1753283;80;25846;-76
2021/06/23 01:56:05;;;;;;;30.05;25.30;;;;;;;20.65;81.37;100468.48;1755137;80;25856;-77
2021/06/23 01:58:41;;;;;;;25.92;23.20;;;;;;;20.67;81.36;100474.48;1754928;80;25849;-78
2021/06/23 02:01:15;;;;;;;26.35;23.38;;;;;;;20.67;81.18;100465.48;1741295;81;25861;-76
2021/06/23 02:04:07;;;;;;;25.05;22.37;;;;;;;20.62;81.03;100470.34;1780947;79;27519;-78
2021/06/23 02:06:56;;;;;;;29.95;22.82;;;;;;;20.62;81.01;100477.14;1753176;81;25328;-77
2021/06/23 02:09:58;;;;;;;25.50;22.73;;;;;;;20.57;81.19;100477.64;1753566;81;25712;-77
2021/06/23 02:12:57;;;;;;;28.42;25.35;;;;;;;20.47;81.38;100474.24;1735371;81;25853;-77
2021/06/23 02:15:27;;;;;;;26.77;24.07;;;;;;;20.42;81.56;100480.97;1753372;79;26616;-77
2021/06/23 02:17:56;;;;;;;;;;;;;;;20.43;81.87;100488.61;1735675;81;28283;-77
2021/06/23 02:20:35;;;;;;;29.00;25.17;;;;;;;20.44;82.14;100488.91;1737271;81;26431;-77
2021/06/23 02:23:10;;;;;;;25.35;22.48;;;;;;;20.42;82.13;100491.86;1754614;80;25788;-78
2021/06/23 02:25:39;;;;;;;26.77;22.75;;;;;;;20.45;82.19;100498.16;1755594;78;26334;-77
2021/06/23 02:28:11;;;;;;;27.13;22.25;;;;;;;20.49;82.22;100499.30;1723002;81;25748;-77
2021/06/23 02:30:38;;;;;;;25.35;22.60;;;;;;;20.51;82.05;100496.31;1760683;80;28242;-77
2021/06/23 02:33:08;;;;;;;24.37;21.57;;;;;;;20.52;82.00;100504.25;1723075;82;25840;-77
2021/06/23 02:35:40;;;;;;;25.62;22.60;;;;;;;20.53;82.06;100508.59;1723299;81;25839;-77
2021/06/23 02:38:18;;;;;;;29.00;23.62;;;;;;;20.52;82.08;100511.05;1703022;80;25948;-79
2021/06/23 02:40:46;;;;;;;29.75;24.67;;;;;;;20.47;82.16;100512.87;1760851;81;25809;-77
2021/06/23 02:43:13;;;;;;;23.30;20.90;;;;;;;20.45;82.32;100517.74;1723174;83;28234;-77
2021/06/23 02:45:42;;;;;;;26.15;22.00;;;;;;;20.44;82.43;100532.44;1722829;83;25939;-76
2021/06/23 02:48:09;;;;;;;24.20;21.75;;;;;;;20.39;82.43;100537.27;1700915;83;25809;-77
2021/06/23 02:50:59;;;;;;;30.52;21.85;;;;;;;20.36;82.57;100535.05;1760115;79;25823;-76
2021/06/23 02:53:29;;;;;;;24.98;22.07;;;;;;;20.32;82.58;100535.27;1723417;83;25826;-77
2021/06/23 02:55:58;;;;;;;25.43;22.62;;;;;;;20.29;82.80;100540.40;1723823;83;27617;-76
2021/06/23 02:58:26;;;;;;;24.00;21.40;;;;;;;20.25;82.72;100543.34;1725340;81;25793;-77
2021/06/23 03:00:54;;;;;;;26.73;22.05;;;;;;;20.19;82.48;100547.84;1749532;81;25961;-77
2021/06/23 03:03:22;;;;;;;39.00;23.95;;;;;;;20.15;82.19;100554.85;1723341;80;25912;-76
2021/06/23 03:05:51;;;;;;;54.67;23.40;;;;;;;20.08;82.02;100556.92;1749655;81;25784;-77
2021/06/23 03:08:19;;;;;;;121.35;23.95;;;;;;;20.00;81.84;100555.46;1725054;83;27389;-78
2021/06/23 03:10:47;;;;;;;136.52;23.95;;;;;;;19.88;81.99;100568.34;1749075;81;25878;-76
2021/06/23 03:13:14;;;;;;;82.75;22.70;;;;;;;19.74;82.30;100574.33;1723195;83;25778;-77
2021/06/23 03:15:45;;;;;;;28.95;23.90;;;;;;;19.66;82.72;100572.03;1735422;82;25889;-77
2021/06/23 03:18:14;;;;;;;33.13;24.55;;;;;;;19.66;83.17;100572.86;1749370;80;26101;-77
2021/06/23 03:20:44;;;;;;;48.83;26.02;;;;;;;19.70;83.61;100575.37;1686213;82;28135;-77
2021/06/23 03:23:12;;;;;;;48.20;26.87;;;;;;;19.70;83.79;100575.89;1739823;82;26417;-77
2021/06/23 03:25:41;;;;;;;56.58;25.05;;;;;;;19.68;84.12;100574.80;1739472;82;25798;-77
2021/06/23 03:28:08;;;;;;;58.60;25.90;;;;;;;19.71;84.48;100569.41;1700646;78;26697;-79
2021/06/23 03:30:37;;;;;;;100.58;25.97;;;;;;;19.68;84.63;100570.72;1711487;82;25892;-77
2021/06/23 03:33:05;;;;;;;110.40;26.60;;;;;;;19.64;85.15;100577.72;1713676;82;27498;-77
2021/06/23 03:35:35;;;;;;;96.50;26.80;;;;;;;19.59;85.86;100578.98;1722891;82;26522;-76
2021/06/23 03:38:02;;;;;;;93.30;27.80;;;;;;;19.53;85.73;100577.78;1711501;82;26043;-77
2021/06/23 03:40:29;;;;;;;113.65;27.65;;;;;;;19.50;86.52;100580.48;1739591;82;25800;-77
2021/06/23 03:42:57;;;;;;;119.50;26.97;;;;;;;19.47;86.80;100592.35;1719885;81;25856;-76
2021/06/23 03:45:25;;;;;;;81.85;27.82;;;;;;;19.48;87.42;100591.30;1780029;80;27592;-77
2021/06/23 03:47:52;;;;;;;82.62;26.42;;;;;;;19.47;87.08;100591.82;1752463;80;25854;-77
2021/06/23 03:50:20;;;;;;;86.85;28.05;;;;;;;19.45;87.89;100587.17;1737956;82;25797;-77
2021/06/23 03:52:49;;;;;;;89.03;28.47;;;;;;;19.43;87.88;100602.06;1709487;82;26377;-78
2021/06/23 03:55:20;;;;;;;67.17;26.77;;;;;;;19.44;88.25;100610.52;1724834;82;25992;-77
2021/06/23 03:57:54;;;;;;;82.10;25.85;;;;;;;19.42;89.26;100616.17;1711847;82;27120;-78
2021/06/23 04:00:25;;;;;;;70.20;26.87;;;;;;;19.40;88.81;100621.03;1735264;82;25307;-77
2021/06/23 04:02:53;;;;;;;62.78;25.62;;;;;;;19.41;89.24;100621.33;1734810;82;26044;-77
2021/06/23 04:05:22;;;;;;;70.62;27.27;;;;;;;19.43;89.82;100623.27;1721757;82;26443;-77
2021/06/23 04:07:49;;;;;;;59.33;26.95;;;;;;;19.42;89.54;100616.17;1711006;81;25730;-77
2021/06/23 04:10:18;;;;;;;76.42;26.50;;;;;;;19.45;90.05;100614.86;1739697;79;27543;-77
2021/06/23 04:12:46;;;;;;;71.17;27.93;;;;;;;19.47;89.95;100614.91;1709140;82;25945;-77
2021/06/23 04:15:16;;;;;;;59.25;28.10;;;;;;;19.51;89.99;100620.67;1703862;81;25867;-78
2021/06/23 04:17:45;;;;;;;56.08;28.73;;;;;;;19.58;90.24;100628.14;1720524;81;25764;-76
2021/06/23 04:20:14;;;;;;;72.35;28.55;;;;;;;19.64;90.41;100625.27;1746614;80;25724;-77
2021/06/23 04:22:49;;;;;;;62.35;27.62;;;;;;;19.69;90.24;100620.47;1728888;80;27506;-76
2021/06/23 04:25:17;;;;;;;63.75;29.75;;;;;;;19.72;90.61;100626.22;1779588;78;25870;-74
2021/06/23 04:27:46;;;;;;;69.50;28.57;;;;;;;19.76;90.53;100631.45;1777519;78;25844;-74
2021/06/23 04:30:15;;;;;;;40.55;27.85;;;;;;;19.82;90.58;100633.18;1749596;81;25933;-75
2021/06/23 04:32:42;;;;;;;49.93;29.67;;;;;;;19.91;90.72;100634.43;1776177;78;25846;-75
2021/06/23 04:35:12;;;;;;;55.90;28.10;;;;;;;19.97;90.64;100637.52;1713908;81;27628;-76
2021/06/23 04:37:42;;;;;;;50.83;28.83;;;;;;;20.05;90.58;100645.81;1711140;81;25896;-74
2021/06/23 04:40:14;;;;;;;50.78;28.57;;;;;;;20.09;90.51;100647.48;1713700;81;25828;-74
2021/06/23 04:42:44;;;;;;;50.28;29.65;;;;;;;20.15;90.55;100650.58;1775620;78;25817;-75
2021/06/23 04:45:14;;;;;;;38.23;29.67;;;;;;;20.19;91.30;100651.75;1727232;81;25741;-76
2021/06/23 04:47:56;;;;;;;40.67;28.52;;;;;;;20.22;90.81;100658.91;1744830;78;27595;-74
2021/06/23 04:50:23;;;;;;;47.30;31.17;;;;;;;20.26;90.89;100652.42;1749234;81;26679;-73
2021/06/23 04:52:58;;;;;;;35.78;28.80;;;;;;;20.30;90.88;100653.03;1735156;82;25888;-74
2021/06/23 04:55:25;;;;;;;36.68;28.27;;;;;;;20.35;91.13;100653.13;1726332;81;26620;-74
2021/06/23 04:57:54;;;;;;;36.85;28.75;;;;;;;20.40;91.00;100661.91;1743614;81;25760;-74
2021/06/23 05:00:22;;;;;;;33.40;27.45;;;;;;;20.47;91.09;100670.70;1739772;79;28254;-75
2021/06/23 05:02:49;;;;;;;33.40;27.80;;;;;;;20.57;91.05;100667.58;1708954;82;26236;-75
2021/06/23 05:05:16;;;;;;;33.15;27.95;;;;;;;20.64;90.79;100662.80;1726117;81;25841;-74
2021/06/23 05:07:43;;;;;;;34.05;26.55;;;;;;;20.72;90.76;100664.28;1748046;80;25977;-74
2021/06/23 05:10:11;;;;;;;29.05;25.15;;;;;;;20.76;90.39;100662.13;1724514;82;26451;-75
2021/06/23 05:12:38;;;;;;;32.35;25.97;;;;;;;20.76;90.20;100665.42;1735756;81;27403;-75
2021/06/23 05:15:07;;;;;;;31.85;25.88;;;;;;;20.79;90.20;100670.34;1723501;82;25935;-76
2021/06/23 05:17:34;;;;;;;28.85;24.37;;;;;;;20.84;90.36;100666.86;1710732;82;25346;-73
2021/06/23 05:20:01;;;;;;;29.40;23.95;;;;;;;20.88;90.02;100672.92;1739185;82;26631;-75
2021/06/23 05:22:28;;;;;;;28.73;24.87;;;;;;;20.87;90.41;100671.82;1735215;82;25892;-74
2021/06/23 05:25:00;;;;;;;29.50;25.65;;;;;;;20.86;90.29;100666.08;1701343;81;27566;-74
2021/06/23 05:27:27;;;;;;;28.83;24.65;;;;;;;20.88;90.12;100670.73;1711132;82;25818;-75
2021/06/23 05:29:54;;;;;;;32.48;25.55;;;;;;;20.93;90.39;100674.36;1700687;83;25734;-74
2021/06/23 05:32:21;;;;;;;32.25;26.48;;;;;;;20.96;90.13;100673.84;1739668;82;26569;-74
2021/06/23 05:34:48;;;;;;;31.02;25.20;;;;;;;21.02;90.23;100668.73;1682208;81;25797;-74
2021/06/23 05:37:15;;;;;;;26.55;23.75;;;;;;;21.05;90.29;100664.19;1729681;81;28339;-74
2021/06/23 05:39:42;;;;;;;31.62;25.60;;;;;;;21.06;90.43;100670.47;1752990;80;25899;-75
2021/06/23 05:42:09;;;;;;;30.75;25.25;;;;;;;21.11;90.44;100671.87;1729604;81;25812;-73
2021/06/23 05:44:36;;;;;;;28.15;23.98;;;;;;;21.16;90.74;100680.11;1724264;81;25745;-73
2021/06/23 05:47:04;;;;;;;26.93;23.90;;;;;;;21.22;90.66;100673.64;1780565;79;25678;-75
2021/06/23 05:49:31;;;;;;;27.48;22.25;;;;;;;21.27;90.21;100669.62;1753424;81;27550;-75
2021/06/23 05:51:59;;;;;;;30.00;24.20;;;;;;;21.30;89.93;100660.39;1780581;80;26147;-76
2021/06/23 05:54:26;;;;;;;27.13;23.57;;;;;;;21.33;90.24;100663.98;1755157;80;25759;-74
2021/06/23 05:56:53;;;;;;;33.85;24.02;;;;;;;21.36;89.95;100671.63;1780542;79;26129;-76
2021/06/23 05:59:20;;;;;;;29.45;24.23;;;;;;;21.37;89.90;100669.20;1752586;81;25518;-75
2021/06/23 06:01:47;;;;;;;26.77;21.95;;;;;;;21.36;90.03;100682.53;1776037;78;26819;-75
2021/06/23 06:04:14;;;;;;;29.23;22.85;;;;;;;21.33;89.69;100680.86;1743998;81;25729;-74
2021/06/23 06:06:41;;;;;;;30.20;24.35;;;;;;;21.39;89.75;100686.11;1722891;82;25821;-76
2021/06/23 06:09:08;;;;;;;28.38;23.70;;;;;;;21.44;89.75;100683.99;1748830;81;26409;-73
2021/06/23 06:11:35;;;;;;;30.08;24.92;;;;;;;21.44;89.78;100694.89;1752130;80;25916;-75
2021/06/23 06:14:02;;;;;;;32.70;24.35;;;;;;;21.39;89.55;100695.66;1776826;78;27557;-75
2021/06/23 06:16:29;;;;;;;29.72;25.00;;;;;;;21.36;89.92;100698.88;1725309;82;26126;-76
2021/06/23 06:18:56;;;;;;;30.57;23.87;;;;;;;21.36;89.77;100696.15;1739838;82;26551;-74
2021/06/23 06:21:25;;;;;;;27.30;23.77;;;;;;;21.34;89.76;100701.03;1708982;82;26820;-74
2021/06/23 06:23:52;;;;;;;28.95;23.42;;;;;;;21.37;89.80;100699.70;1700764;82;25313;-76
2021/06/23 06:26:20;;;;;;;27.73;24.12;;;;;;;21.38;89.48;100708.18;1710605;82;27561;-74
2021/06/23 06:28:47;;;;;;;30.62;24.60;;;;;;;21.43;89.76;100715.86;1746508;81;25957;-74
2021/06/23 06:31:14;;;;;;;30.02;25.37;;;;;;;21.44;89.60;100713.97;1753012;81;26580;-76
2021/06/23 06:33:41;;;;;;;32.73;26.50;;;;;;;21.46;89.46;100722.18;1771593;80;25855;-74
2021/06/23 06:36:08;;;;;;;30.15;25.32;;;;;;;21.44;89.49;100714.80;1710203;81;25556;-75
2021/06/23 06:38:35;;;;;;;28.30;25.08;;;;;;;21.44;89.38;100721.61;1740948;81;28179;-74
2021/06/23 06:41:03;;;;;;;34.30;27.37;;;;;;;21.44;89.36;100721.61;1700184;83;26346;-75
2021/06/23 06:43:30;;;;;;;31.90;25.60;;;;;;;21.53;89.55;100730.70;1767147;78;25906;-76
2021/06/23 06:45:57;;;;;;;32.70;26.17;;;;;;;21.54;89.20;100731.80;1754355;81;25861;-75
2021/06/23 06:48:24;;;;;;;33.00;27.77;;;;;;;21.53;89.04;100739.70;1745614;81;25761;-75
2021/06/23 06:50:52;;;;;;;33.28;26.55;;;;;;;21.51;89.02;100735.84;1775917;80;27364;-74
2021/06/23 06:53:19;;;;;;;32.20;25.88;;;;;;;21.50;89.16;100734.75;1702178;81;25876;-73
2021/06/23 06:55:47;;;;;;;29.63;24.15;;;;;;;21.51;89.24;100737.21;1706707;81;25963;-77
2021/06/23 06:58:14;;;;;;;31.05;25.82;;;;;;;21.55;89.78;100732.09;1730762;81;25786;-73
2021/06/23 07:00:42;;;;;;;33.42;26.42;;;;;;;21.60;89.67;100735.42;1770574;80;25992;-74
2021/06/23 07:03:09;;;;;;;34.55;26.75;;;;;;;21.63;89.84;100735.72;1679442;82;27367;-73
2021/06/23 07:05:36;;;;;;;34.67;28.23;;;;;;;21.61;89.35;100731.59;1742993;80;25909;-75
2021/06/23 07:08:04;;;;;;;35.00;28.42;;;;;;;21.65;89.44;100732.20;1736139;80;25397;-73
2021/06/23 07:10:31;;;;;;;35.98;27.00;;;;;;;21.65;89.14;100718.56;1748162;80;25767;-74
2021/06/23 07:12:59;;;;;;;34.30;28.38;;;;;;;21.69;88.94;100726.52;1687405;81;25938;-75
2021/06/23 07:15:26;;;;;;;31.70;26.40;;;;;;;21.70;89.13;100728.70;1739357;81;27447;-75
2021/06/23 07:17:53;;;;;;;32.93;25.80;;;;;;;21.74;89.40;100736.13;1738670;82;26426;-75
2021/06/23 07:20:21;;;;;;;31.07;25.17;;;;;;;21.76;89.11;100730.41;1694570;82;25318;-74
2021/06/23 07:22:48;;;;;;;30.52;25.57;;;;;;;21.78;88.93;100735.05;1684581;82;27078;-75
2021/06/23 07:25:15;;;;;;;30.92;26.40;;;;;;;21.84;88.81;100738.14;1733097;82;26650;-74
2021/06/23 07:27:43;;;;;;;30.00;26.00;;;;;;;21.85;88.71;100747.45;1723562;82;27503;-75
2021/06/23 07:30:11;;;;;;;33.30;25.50;;;;;;;21.89;88.65;100745.03;1669596;83;25935;-73
2021/06/23 07:32:48;;;;;;;36.17;26.52;;;;;;;21.94;88.87;100751.34;1745275;79;25741;-75
2021/06/23 07:38:00;;;;;;;31.93;26.07;;;;;;;21.90;88.08;100754.84;1738260;81;25832;-74
2021/06/23 07:40:43;;;;;;;40.88;25.55;;;;;;;21.94;88.65;100754.07;1682291;83;27559;-76
2021/06/23 07:43:12;;;;;;;32.93;26.48;;;;;;;22.02;88.58;100760.45;1767076;80;26591;-76
2021/06/23 07:45:43;;;;;;;37.48;27.95;;;;;;;22.05;87.91;100763.18;1738786;80;25772;-75
2021/06/23 07:48:08;;;;;;;37.35;28.52;;;;;;;22.03;88.09;100759.35;1738144;82;25858;-74
2021/06/23 07:50:45;;;;;;;35.28;28.55;;;;;;;22.06;87.92;100760.22;1706948;81;26515;-73
2021/06/23 07:53:23;;;;;;;38.10;28.65;;;;;;;22.06;87.89;100768.40;1711879;81;28113;-73
2021/06/23 07:55:51;;;;;;;33.28;27.80;;;;;;;22.04;87.65;100771.09;1724385;82;25722;-76
2021/06/23 08:01:41;;;;;;;36.77;28.42;;;;;;;22.04;87.64;100777.38;1725070;81;25783;-74
2021/06/23 08:09:34;;;;;;;35.00;28.57;;;;;;;22.10;88.30;100772.79;1733858;82;25970;-75
2021/06/23 08:14:39;;;;;;;33.48;27.10;;;;;;;22.20;87.80;100773.70;1729018;81;25718;-74
2021/06/23 08:17:07;;;;;;;35.03;27.85;;;;;;;22.27;87.78;100778.95;1753016;80;25731;-75
2021/06/23 08:19:34;;;;;;;32.67;25.90;;;;;;;22.36;87.86;100785.59;1752845;81;27554;-75
2021/06/23 08:22:01;;;;;;;29.55;25.20;;;;;;;22.45;87.12;100784.58;1669671;81;25840;-75
2021/06/23 08:24:28;;;;;;;28.83;24.32;;;;;;;22.58;87.42;100783.58;1704885;81;25866;-78
2021/06/23 08:26:55;;;;;;;30.20;25.17;;;;;;;22.76;87.35;100790.05;1752515;81;26141;-74
2021/06/23 08:29:22;;;;;;;29.15;23.32;;;;;;;22.92;86.69;100785.52;1752637;81;25717;-73
2021/06/23 08:31:49;;;;;;;25.57;22.93;;;;;;;23.00;86.19;100784.48;1705542;81;27595;-75
2021/06/23 08:34:16;;;;;;;26.93;23.12;;;;;;;23.14;85.92;100783.45;1704815;81;25851;-75
2021/06/23 08:36:43;;;;;;;26.33;22.48;;;;;;;23.26;85.74;100786.82;1752729;81;25968;-74
2021/06/23 08:39:10;;;;;;;26.10;21.75;;;;;;;23.36;84.92;100787.42;1753050;80;25916;-74
2021/06/23 08:41:38;;;;;;;27.77;21.02;;;;;;;23.50;85.52;100795.44;1752404;80;26609;-74
2021/06/23 08:44:05;;;;;;;24.45;21.48;;;;;;;23.61;84.42;100797.94;1711260;81;27389;-75
2021/06/23 08:46:32;;;;;;;25.35;21.85;;;;;;;23.68;84.44;100798.52;1728992;82;26593;-78
2021/06/23 08:49:01;;;;;;;24.95;21.97;;;;;;;23.80;84.32;100804.30;1755859;81;25871;-78
2021/06/23 08:51:29;;;;;;;22.58;20.23;;;;;;;23.97;85.00;100807.10;1756208;81;26627;-74
2021/06/23 08:53:56;;;;;;;23.18;20.70;;;;;;;24.12;84.43;100812.61;1755956;77;25445;-76
2021/06/23 08:56:23;;;;;;;21.90;19.50;;;;;;;24.16;83.81;100813.75;1744595;82;28345;-77
2021/06/23 08:58:50;;;;;;;22.75;20.32;;;;;;;24.14;82.83;100815.10;1729385;82;25859;-75
2021/06/23 09:01:17;;;;;;;20.77;18.77;;;;;;;24.11;82.30;100815.09;1732265;81;26017;-76
2021/06/23 09:04:02;;;;;;;22.93;20.52;;;;;;;24.16;82.19;100817.84;1722798;82;26463;-73
2021/06/23 09:07:01;;;;;;;24.70;19.70;;;;;;;24.22;82.18;100814.56;1724666;81;25779;-75
2021/06/23 09:09:36;;;;;;;21.68;18.90;;;;;;;24.33;82.34;100803.37;1744754;79;27455;-76
2021/06/23 09:12:08;;;;;;;24.37;18.42;;;;;;;24.52;81.38;100807.75;1778482;80;26560;-76
2021/06/23 09:14:39;;;;;;;23.77;19.90;;;;;;;24.56;81.09;100811.59;1740660;81;25395;-74
2021/06/23 09:17:15;;;;;;;24.23;18.17;;;;;;;24.57;80.90;100813.78;1750655;81;25778;-76
2021/06/23 09:19:49;;;;;;;20.80;17.07;;;;;;;24.68;80.76;100811.33;1750458;81;25997;-76
2021/06/23 09:22:42;;;;;;;20.25;17.80;;;;;;;24.77;80.00;100807.77;1754747;80;27470;-75
2021/06/23 09:25:20;;;;;;;17.77;15.98;;;;;;;24.77;78.67;100808.31;1716715;81;25761;-78
2021/06/23 09:27:51;;;;;;;19.17;17.12;;;;;;;24.81;78.46;100814.88;1750814;81;25816;-76
2021/06/23 09:30:37;;;;;;;22.20;18.45;;;;;;;24.90;77.98;100825.03;1751275;80;26942;-76
2021/06/23 09:33:18;;;;;;;20.15;17.40;;;;;;;25.01;77.55;100832.69;1750835;81;25951;-75
2021/06/23 09:35:59;;;;;;;18.75;16.50;;;;;;;25.10;77.77;100832.41;1754013;80;27359;-75
2021/06/23 09:38:45;;;;;;;18.90;16.90;;;;;;;25.10;76.16;100832.41;1750929;81;25774;-76
2021/06/23 09:41:33;;;;;;;18.67;16.67;;;;;;;25.03;76.16;100829.95;1750766;81;25827;-76
2021/06/23 09:44:08;;;;;;;20.65;18.40;;;;;;;24.98;75.64;100829.12;1756257;80;26619;-76
2021/06/23 09:46:47;;;;;;;19.07;16.37;;;;;;;24.93;76.58;100834.63;1732825;81;25784;-76
2021/06/23 09:49:27;;;;;;;22.82;18.92;;;;;;;25.01;76.73;100840.91;1720739;80;27463;-77
2021/06/23 09:51:57;;;;;;;18.98;17.07;;;;;;;25.09;76.24;100839.80;1720518;83;25784;-76
2021/06/23 09:54:30;;;;;;;18.98;17.07;;;;;;;25.13;76.20;100831.84;1722424;81;25892;-74
2021/06/23 09:57:11;;;;;;;18.98;16.65;;;;;;;25.10;74.72;100830.50;1720295;83;26156;-77
2021/06/23 09:59:42;;;;;;;18.25;16.30;;;;;;;25.05;75.06;100828.30;1721174;83;25838;-79
2021/06/23 10:02:32;;;;;;;20.52;15.98;;;;;;;25.06;75.72;100832.12;1720818;80;27586;-76
2021/06/23 10:05:03;;;;;;;18.20;16.30;;;;;;;25.04;75.23;100837.06;1725092;81;25885;-74
2021/06/23 10:07:43;;;;;;;17.73;16.07;;;;;;;25.00;74.67;100842.83;1720256;81;25934;-75
2021/06/23 10:10:21;;;;;;;19.73;15.05;;;;;;;25.13;75.77;100846.91;1738002;81;26446;-77
2021/06/23 10:12:51;;;;;;;18.60;15.80;;;;;;;25.27;76.08;100849.38;1743072;81;25969;-79
2021/06/23 10:15:19;;;;;;;16.20;14.55;;;;;;;25.48;75.49;100848.80;1703207;81;27556;-77
2021/06/23 10:17:47;;;;;;;16.17;14.50;;;;;;;25.62;75.55;100858.09;1748825;80;25720;-77
2021/06/23 10:20:16;;;;;;;20.62;14.50;;;;;;;25.65;74.65;100852.86;1724218;83;25732;-76
2021/06/23 10:22:46;;;;;;;15.53;13.90;;;;;;;25.55;72.92;100856.19;1723768;83;25802;-76
2021/06/23 10:25:16;;;;;;;15.88;14.38;;;;;;;25.48;73.61;100857.02;1658828;83;26560;-77
2021/06/23 10:27:46;;;;;;;;;;;;;;;25.51;74.13;100857.31;1692725;82;27643;-76
2021/06/23 10:30:16;;;;;;;15.03;13.53;;;;;;;25.61;74.14;100855.06;1753026;81;25821;-79
2021/06/23 10:32:43;;;;;;;;;;;;;;;25.64;73.78;100847.66;1713329;81;25753;-75
2021/06/23 10:35:13;;;;;;;15.90;14.18;;;;;;;25.71;73.54;100859.97;1711176;82;25849;-74
2021/06/23 10:37:42;;;;;;;16.57;14.60;;;;;;;25.78;73.64;100855.55;1711004;80;25922;-75
2021/06/23 10:40:12;;;;;;;13.53;12.20;;;;;;;25.88;73.27;100864.56;1726606;81;27480;-76
2021/06/23 10:42:40;;;;;;;13.03;11.68;;;;;;;25.81;73.06;100863.23;1731805;81;25812;-74
2021/06/23 10:45:09;;;;;;;19.37;14.50;;;;;;;25.76;71.62;100871.48;1738226;82;26201;-74
2021/06/23 10:47:44;;;;;;;15.83;14.23;;;;;;;25.59;71.88;100872.36;1774242;80;26428;-75
2021/06/23 10:50:19;;;;;;;15.10;13.28;;;;;;;25.43;71.55;100870.20;1697845;81;25805;-76
2021/06/23 10:52:47;;;;;;;15.53;13.85;;;;;;;25.34;72.18;100873.77;1720465;81;27448;-77
2021/06/23 10:55:25;;;;;;;16.37;14.60;;;;;;;25.25;72.48;100874.88;1737999;82;26474;-77
2021/06/23 10:57:59;;;;;;;16.45;14.73;;;;;;;25.24;73.00;100870.48;1736527;81;26486;-74
2021/06/23 11:00:32;;;;;;;14.93;13.43;;;;;;;25.24;72.87;100874.59;1705008;83;26639;-75
2021/06/23 11:03:09;;;;;;;17.40;14.53;;;;;;;25.26;72.78;100869.66;1709807;82;25805;-76
2021/06/23 11:05:40;;;;;;;16.90;15.23;;;;;;;25.25;72.64;100870.77;1721840;81;28185;-75
2021/06/23 11:08:31;;;;;;;16.42;14.83;;;;;;;25.36;72.88;100869.66;1750085;81;25911;-74
2021/06/23 11:11:07;;;;;;;15.68;14.10;;;;;;;25.50;73.58;100867.17;1747457;81;25902;-75
2021/06/23 11:13:37;;;;;;;16.57;14.87;;;;;;;25.63;72.80;100856.98;1763401;80;25822;-75
2021/06/23 11:16:07;;;;;;;19.15;15.43;;;;;;;25.70;72.15;100856.14;1753390;79;25797;-75
2021/06/23 11:18:38;;;;;;;18.57;16.15;;;;;;;25.75;72.82;100852.81;1781209;80;27450;-75
2021/06/23 11:21:22;;;;;;;17.80;13.98;;;;;;;25.81;71.08;100856.38;1704527;81;26634;-76
2021/06/23 11:24:03;;;;;;;16.40;14.53;;;;;;;25.75;71.37;100854.19;1728490;81;25808;-75
2021/06/23 11:26:38;;;;;;;16.32;13.48;;;;;;;25.82;72.23;100853.88;1749991;81;26634;-77
2021/06/23 11:29:22;;;;;;;18.30;14.58;;;;;;;25.88;71.23;100852.21;1726802;81;25907;-76
2021/06/23 11:32:06;;;;;;;15.83;14.33;;;;;;;25.86;71.06;100857.70;1726201;81;28222;-76
2021/06/23 11:34:38;;;;;;;15.13;13.60;;;;;;;25.87;70.93;100856.08;1736209;81;25811;-75
2021/06/23 11:37:12;;;;;;;17.92;14.55;;;;;;;25.88;71.50;100846.72;1760047;80;25934;-75
2021/06/23 11:39:41;;;;;;;20.70;15.88;;;;;;;25.96;71.02;100848.87;1724606;81;25852;-76